sensor_id;sensor_type;location;lat;lon;timestamp;temperature;humidity
41816;DHT22;27814;53.452;-6.180;2022-12-18T00:00:07;5.10;99.90
41816;DHT22;27814;53.452;-6.180;2022-12-18T00:02:35;5.20;99.90
41816;DHT22;27814;53.452;-6.180;2022-12-18T00:05:05;5.20;99.90
41816;DHT22;27814;53.452;-6.180;2022-12-18T00:07:33;5.20;99.90
41816;DHT22;27814;53.452;-6.180;2022-12-18T00:10:01;5.20;99.90
41816;DHT22;27814;53.452;-6.180;2022-12-18T00:12:31;5.30;99.90
41816;DHT22;27814;53.452;-6.180;2022-12-18T00:14:59;5.30;99.90
41816;DHT22;27814;53.452;-6.180;2022-12-18T00:17:28;5.30;99.90
41816;DHT22;27814;53.452;-6.180;2022-12-18T00:19:56;5.30;99.90
41816;DHT22;27814;53.452;-6.180;2022-12-18T00:22:25;5.40;99.90
41816;DHT22;27814;53.452;-6.180;2022-12-18T00:24:53;5.40;99.90
41816;DHT22;27814;53.452;-6.180;2022-12-18T00:27:21;5.50;99.90
41816;DHT22;27814;53.452;-6.180;2022-12-18T00:29:51;5.50;99.90
41816;DHT22;27814;53.452;-6.180;2022-12-18T00:32:20;5.50;99.90
41816;DHT22;27814;53.452;-6.180;2022-12-18T00:34:48;5.50;99.90
41816;DHT22;27814;53.452;-6.180;2022-12-18T00:37:16;5.60;99.90
41816;DHT22;27814;53.452;-6.180;2022-12-18T00:39:48;5.60;99.90
41816;DHT22;27814;53.452;-6.180;2022-12-18T00:42:17;5.70;99.90
41816;DHT22;27814;53.452;-6.180;2022-12-18T00:45:03;5.80;99.90
41816;DHT22;27814;53.452;-6.180;2022-12-18T00:47:38;5.90;99.90
41816;DHT22;27814;53.452;-6.180;2022-12-18T00:50:08;5.90;99.90
41816;DHT22;27814;53.452;-6.180;2022-12-18T00:52:37;6.00;99.90
41816;DHT22;27814;53.452;-6.180;2022-12-18T00:55:06;6.00;99.90
41816;DHT22;27814;53.452;-6.180;2022-12-18T00:57:35;6.10;99.90
41816;DHT22;27814;53.452;-6.180;2022-12-18T01:00:07;6.10;99.90
41816;DHT22;27814;53.452;-6.180;2022-12-18T01:02:36;6.10;99.90
41816;DHT22;27814;53.452;-6.180;2022-12-18T01:05:05;6.20;99.90
41816;DHT22;27814;53.452;-6.180;2022-12-18T01:07:34;6.20;99.90
41816;DHT22;27814;53.452;-6.180;2022-12-18T01:10:03;6.20;99.90
41816;DHT22;27814;53.452;-6.180;2022-12-18T01:12:32;6.20;99.90
41816;DHT22;27814;53.452;-6.180;2022-12-18T01:15:01;6.20;99.90
41816;DHT22;27814;53.452;-6.180;2022-12-18T01:17:30;6.20;99.90
41816;DHT22;27814;53.452;-6.180;2022-12-18T01:19:59;6.30;99.90
41816;DHT22;27814;53.452;-6.180;2022-12-18T01:22:27;6.30;99.90
41816;DHT22;27814;53.452;-6.180;2022-12-18T01:24:56;6.30;99.90
41816;DHT22;27814;53.452;-6.180;2022-12-18T01:27:24;6.30;99.90
41816;DHT22;27814;53.452;-6.180;2022-12-18T01:29:52;6.30;99.90
41816;DHT22;27814;53.452;-6.180;2022-12-18T01:32:21;6.30;99.90
41816;DHT22;27814;53.452;-6.180;2022-12-18T01:34:51;6.20;99.90
41816;DHT22;27814;53.452;-6.180;2022-12-18T01:37:19;6.20;99.90
41816;DHT22;27814;53.452;-6.180;2022-12-18T01:39:47;6.20;99.90
41816;DHT22;27814;53.452;-6.180;2022-12-18T01:42:17;6.20;99.90
41816;DHT22;27814;53.452;-6.180;2022-12-18T01:44:59;6.10;99.90
41816;DHT22;27814;53.452;-6.180;2022-12-18T01:47:32;6.10;99.90
41816;DHT22;27814;53.452;-6.180;2022-12-18T01:50:06;6.10;99.90
41816;DHT22;27814;53.452;-6.180;2022-12-18T01:52:36;6.10;99.90
41816;DHT22;27814;53.452;-6.180;2022-12-18T01:55:06;6.10;99.90
41816;DHT22;27814;53.452;-6.180;2022-12-18T01:57:36;6.10;99.90
41816;DHT22;27814;53.452;-6.180;2022-12-18T02:00:07;6.00;99.90
41816;DHT22;27814;53.452;-6.180;2022-12-18T02:02:36;6.00;99.90
41816;DHT22;27814;53.452;-6.180;2022-12-18T02:05:07;6.00;99.90
41816;DHT22;27814;53.452;-6.180;2022-12-18T02:07:42;6.00;99.90
41816;DHT22;27814;53.452;-6.180;2022-12-18T02:10:17;6.00;99.90
41816;DHT22;27814;53.452;-6.180;2022-12-18T02:12:51;6.10;99.90
41816;DHT22;27814;53.452;-6.180;2022-12-18T02:15:27;6.00;99.90
41816;DHT22;27814;53.452;-6.180;2022-12-18T02:18:04;6.00;99.90
41816;DHT22;27814;53.452;-6.180;2022-12-18T02:20:43;6.10;99.90
41816;DHT22;27814;53.452;-6.180;2022-12-18T02:23:21;6.10;99.90
41816;DHT22;27814;53.452;-6.180;2022-12-18T02:26:14;6.00;99.90
41816;DHT22;27814;53.452;-6.180;2022-12-18T02:28:46;6.10;99.90
41816;DHT22;27814;53.452;-6.180;2022-12-18T02:31:21;6.10;99.90
41816;DHT22;27814;53.452;-6.180;2022-12-18T02:33:54;6.20;99.90
41816;DHT22;27814;53.452;-6.180;2022-12-18T02:36:25;6.20;99.90
41816;DHT22;27814;53.452;-6.180;2022-12-18T02:38:55;6.30;99.90
41816;DHT22;27814;53.452;-6.180;2022-12-18T02:41:25;6.40;99.90
41816;DHT22;27814;53.452;-6.180;2022-12-18T02:43:56;6.40;99.90
41816;DHT22;27814;53.452;-6.180;2022-12-18T02:46:31;6.40;99.90
41816;DHT22;27814;53.452;-6.180;2022-12-18T02:49:10;6.50;99.90
41816;DHT22;27814;53.452;-6.180;2022-12-18T02:51:48;6.50;99.90
41816;DHT22;27814;53.452;-6.180;2022-12-18T02:54:32;6.50;99.90
41816;DHT22;27814;53.452;-6.180;2022-12-18T02:57:13;6.60;99.90
41816;DHT22;27814;53.452;-6.180;2022-12-18T02:59:49;6.70;99.90
41816;DHT22;27814;53.452;-6.180;2022-12-18T03:02:24;6.70;99.90
41816;DHT22;27814;53.452;-6.180;2022-12-18T03:05:01;6.80;99.90
41816;DHT22;27814;53.452;-6.180;2022-12-18T03:07:36;6.80;99.90
41816;DHT22;27814;53.452;-6.180;2022-12-18T03:10:09;6.80;99.90
41816;DHT22;27814;53.452;-6.180;2022-12-18T03:12:44;6.80;99.90
41816;DHT22;27814;53.452;-6.180;2022-12-18T03:15:16;6.90;99.90
41816;DHT22;27814;53.452;-6.180;2022-12-18T03:17:49;6.90;99.90
41816;DHT22;27814;53.452;-6.180;2022-12-18T03:20:21;6.90;99.90
41816;DHT22;27814;53.452;-6.180;2022-12-18T03:22:52;6.90;99.90
41816;DHT22;27814;53.452;-6.180;2022-12-18T03:25:22;6.90;99.90
41816;DHT22;27814;53.452;-6.180;2022-12-18T03:27:55;6.90;99.90
41816;DHT22;27814;53.452;-6.180;2022-12-18T03:30:25;6.90;99.90
41816;DHT22;27814;53.452;-6.180;2022-12-18T03:33:00;7.00;99.90
41816;DHT22;27814;53.452;-6.180;2022-12-18T03:35:33;7.00;99.90
41816;DHT22;27814;53.452;-6.180;2022-12-18T03:38:03;7.00;99.90
41816;DHT22;27814;53.452;-6.180;2022-12-18T03:40:37;7.00;99.90
41816;DHT22;27814;53.452;-6.180;2022-12-18T03:43:13;6.90;99.90
41816;DHT22;27814;53.452;-6.180;2022-12-18T03:45:50;6.90;99.90
41816;DHT22;27814;53.452;-6.180;2022-12-18T03:48:25;6.90;99.90
41816;DHT22;27814;53.452;-6.180;2022-12-18T03:50:57;6.90;99.90
41816;DHT22;27814;53.452;-6.180;2022-12-18T03:53:33;6.90;99.90
41816;DHT22;27814;53.452;-6.180;2022-12-18T03:56:05;6.90;99.90
41816;DHT22;27814;53.452;-6.180;2022-12-18T03:58:37;7.00;99.90
41816;DHT22;27814;53.452;-6.180;2022-12-18T04:01:08;6.90;99.90
41816;DHT22;27814;53.452;-6.180;2022-12-18T04:03:38;6.90;99.90
41816;DHT22;27814;53.452;-6.180;2022-12-18T04:06:07;7.00;99.90
41816;DHT22;27814;53.452;-6.180;2022-12-18T04:08:36;6.90;99.90
41816;DHT22;27814;53.452;-6.180;2022-12-18T04:11:05;6.90;99.90
41816;DHT22;27814;53.452;-6.180;2022-12-18T04:13:37;7.00;99.90
41816;DHT22;27814;53.452;-6.180;2022-12-18T04:16:07;7.00;99.90
41816;DHT22;27814;53.452;-6.180;2022-12-18T04:18:37;7.00;99.90
41816;DHT22;27814;53.452;-6.180;2022-12-18T04:21:05;7.00;99.90
41816;DHT22;27814;53.452;-6.180;2022-12-18T04:23:33;7.00;99.90
41816;DHT22;27814;53.452;-6.180;2022-12-18T04:26:02;7.00;99.90
41816;DHT22;27814;53.452;-6.180;2022-12-18T04:28:31;7.00;99.90
41816;DHT22;27814;53.452;-6.180;2022-12-18T04:31:00;7.00;99.90
41816;DHT22;27814;53.452;-6.180;2022-12-18T04:33:29;7.00;99.90
41816;DHT22;27814;53.452;-6.180;2022-12-18T04:35:57;7.00;99.90
41816;DHT22;27814;53.452;-6.180;2022-12-18T04:38:25;7.10;99.90
41816;DHT22;27814;53.452;-6.180;2022-12-18T04:40:54;7.10;99.90
41816;DHT22;27814;53.452;-6.180;2022-12-18T04:43:22;7.10;99.90
41816;DHT22;27814;53.452;-6.180;2022-12-18T04:45:50;7.10;99.90
41816;DHT22;27814;53.452;-6.180;2022-12-18T04:48:20;7.10;99.90
41816;DHT22;27814;53.452;-6.180;2022-12-18T04:50:48;7.10;99.90
41816;DHT22;27814;53.452;-6.180;2022-12-18T04:53:17;7.20;99.90
41816;DHT22;27814;53.452;-6.180;2022-12-18T04:55:45;7.20;99.90
41816;DHT22;27814;53.452;-6.180;2022-12-18T04:58:15;7.30;99.90
41816;DHT22;27814;53.452;-6.180;2022-12-18T05:00:43;7.30;99.90
41816;DHT22;27814;53.452;-6.180;2022-12-18T05:03:11;7.30;99.90
41816;DHT22;27814;53.452;-6.180;2022-12-18T05:05:41;7.30;99.90
41816;DHT22;27814;53.452;-6.180;2022-12-18T05:08:09;7.30;99.90
41816;DHT22;27814;53.452;-6.180;2022-12-18T05:10:38;7.40;99.90
41816;DHT22;27814;53.452;-6.180;2022-12-18T05:13:07;7.40;99.90
41816;DHT22;27814;53.452;-6.180;2022-12-18T05:15:35;7.40;99.90
41816;DHT22;27814;53.452;-6.180;2022-12-18T05:18:04;7.40;99.90
41816;DHT22;27814;53.452;-6.180;2022-12-18T05:20:32;7.50;99.90
41816;DHT22;27814;53.452;-6.180;2022-12-18T05:23:02;7.50;99.90
41816;DHT22;27814;53.452;-6.180;2022-12-18T05:25:30;7.50;99.90
41816;DHT22;27814;53.452;-6.180;2022-12-18T05:27:59;7.50;99.90
41816;DHT22;27814;53.452;-6.180;2022-12-18T05:30:27;7.50;99.90
41816;DHT22;27814;53.452;-6.180;2022-12-18T05:32:55;7.50;99.90
41816;DHT22;27814;53.452;-6.180;2022-12-18T05:35:25;7.50;99.90
41816;DHT22;27814;53.452;-6.180;2022-12-18T05:37:54;7.60;99.90
41816;DHT22;27814;53.452;-6.180;2022-12-18T05:40:23;7.60;99.90
41816;DHT22;27814;53.452;-6.180;2022-12-18T05:42:51;7.60;99.90
41816;DHT22;27814;53.452;-6.180;2022-12-18T05:45:20;7.60;99.90
41816;DHT22;27814;53.452;-6.180;2022-12-18T05:47:48;7.60;99.90
41816;DHT22;27814;53.452;-6.180;2022-12-18T05:50:16;7.60;99.90
41816;DHT22;27814;53.452;-6.180;2022-12-18T05:52:45;7.60;99.90
41816;DHT22;27814;53.452;-6.180;2022-12-18T05:55:13;7.60;99.90
41816;DHT22;27814;53.452;-6.180;2022-12-18T05:57:43;7.60;99.90
41816;DHT22;27814;53.452;-6.180;2022-12-18T06:00:12;7.60;99.90
41816;DHT22;27814;53.452;-6.180;2022-12-18T06:02:41;7.60;99.90
41816;DHT22;27814;53.452;-6.180;2022-12-18T06:05:09;7.60;99.90
41816;DHT22;27814;53.452;-6.180;2022-12-18T06:07:38;7.60;99.90
41816;DHT22;27814;53.452;-6.180;2022-12-18T06:10:07;7.60;99.90
41816;DHT22;27814;53.452;-6.180;2022-12-18T06:12:35;7.60;99.90
41816;DHT22;27814;53.452;-6.180;2022-12-18T06:15:07;7.60;99.90
41816;DHT22;27814;53.452;-6.180;2022-12-18T06:17:36;7.60;99.90
41816;DHT22;27814;53.452;-6.180;2022-12-18T06:20:05;7.60;99.90
41816;DHT22;27814;53.452;-6.180;2022-12-18T06:22:34;7.60;99.90
41816;DHT22;27814;53.452;-6.180;2022-12-18T06:25:03;7.60;99.90
41816;DHT22;27814;53.452;-6.180;2022-12-18T06:27:33;7.60;99.90
41816;DHT22;27814;53.452;-6.180;2022-12-18T06:30:02;7.60;99.90
41816;DHT22;27814;53.452;-6.180;2022-12-18T06:32:32;7.60;99.90
41816;DHT22;27814;53.452;-6.180;2022-12-18T06:35:00;7.60;99.90
41816;DHT22;27814;53.452;-6.180;2022-12-18T06:37:30;7.50;99.90
41816;DHT22;27814;53.452;-6.180;2022-12-18T06:39:59;7.60;99.90
41816;DHT22;27814;53.452;-6.180;2022-12-18T06:42:28;7.60;99.90
41816;DHT22;27814;53.452;-6.180;2022-12-18T06:44:56;7.60;99.90
41816;DHT22;27814;53.452;-6.180;2022-12-18T06:47:25;7.60;99.90
41816;DHT22;27814;53.452;-6.180;2022-12-18T06:49:54;7.60;99.90
41816;DHT22;27814;53.452;-6.180;2022-12-18T06:52:23;7.60;99.90
41816;DHT22;27814;53.452;-6.180;2022-12-18T06:54:51;7.50;99.90
41816;DHT22;27814;53.452;-6.180;2022-12-18T06:57:19;7.50;99.90
41816;DHT22;27814;53.452;-6.180;2022-12-18T06:59:48;7.50;99.90
41816;DHT22;27814;53.452;-6.180;2022-12-18T07:02:16;7.50;99.90
41816;DHT22;27814;53.452;-6.180;2022-12-18T07:04:44;7.50;99.90
41816;DHT22;27814;53.452;-6.180;2022-12-18T07:07:14;7.50;99.90
41816;DHT22;27814;53.452;-6.180;2022-12-18T07:09:42;7.50;99.90
41816;DHT22;27814;53.452;-6.180;2022-12-18T07:12:10;7.50;99.90
41816;DHT22;27814;53.452;-6.180;2022-12-18T07:14:39;7.50;99.90
41816;DHT22;27814;53.452;-6.180;2022-12-18T07:17:07;7.40;99.90
41816;DHT22;27814;53.452;-6.180;2022-12-18T07:19:36;7.40;99.90
41816;DHT22;27814;53.452;-6.180;2022-12-18T07:22:04;7.40;99.90
41816;DHT22;27814;53.452;-6.180;2022-12-18T07:24:34;7.40;99.90
41816;DHT22;27814;53.452;-6.180;2022-12-18T07:27:02;7.30;99.90
41816;DHT22;27814;53.452;-6.180;2022-12-18T07:29:33;7.30;99.90
41816;DHT22;27814;53.452;-6.180;2022-12-18T07:32:02;7.30;99.90
41816;DHT22;27814;53.452;-6.180;2022-12-18T07:34:30;7.30;99.90
41816;DHT22;27814;53.452;-6.180;2022-12-18T07:36:58;7.30;99.90
41816;DHT22;27814;53.452;-6.180;2022-12-18T07:39:27;7.30;99.90
41816;DHT22;27814;53.452;-6.180;2022-12-18T07:41:57;7.30;99.90
41816;DHT22;27814;53.452;-6.180;2022-12-18T07:44:42;7.30;99.90
41816;DHT22;27814;53.452;-6.180;2022-12-18T07:47:10;7.40;99.90
41816;DHT22;27814;53.452;-6.180;2022-12-18T07:49:39;7.40;99.90
41816;DHT22;27814;53.452;-6.180;2022-12-18T07:52:07;7.40;99.90
41816;DHT22;27814;53.452;-6.180;2022-12-18T07:54:36;7.40;99.90
41816;DHT22;27814;53.452;-6.180;2022-12-18T07:57:05;7.50;99.90
41816;DHT22;27814;53.452;-6.180;2022-12-18T07:59:54;7.50;99.90
41816;DHT22;27814;53.452;-6.180;2022-12-18T08:02:22;7.50;99.90
41816;DHT22;27814;53.452;-6.180;2022-12-18T08:04:50;7.50;99.90
41816;DHT22;27814;53.452;-6.180;2022-12-18T08:07:19;7.50;99.90
41816;DHT22;27814;53.452;-6.180;2022-12-18T08:09:47;7.50;99.90
41816;DHT22;27814;53.452;-6.180;2022-12-18T08:12:17;7.50;99.90
41816;DHT22;27814;53.452;-6.180;2022-12-18T08:14:45;7.50;99.90
41816;DHT22;27814;53.452;-6.180;2022-12-18T08:17:13;7.50;99.90
41816;DHT22;27814;53.452;-6.180;2022-12-18T08:19:42;7.50;99.90
41816;DHT22;27814;53.452;-6.180;2022-12-18T08:22:10;7.50;99.90
41816;DHT22;27814;53.452;-6.180;2022-12-18T08:24:38;7.50;99.90
41816;DHT22;27814;53.452;-6.180;2022-12-18T08:27:06;7.50;99.90
41816;DHT22;27814;53.452;-6.180;2022-12-18T08:29:56;7.50;99.90
41816;DHT22;27814;53.452;-6.180;2022-12-18T08:32:25;7.50;99.90
41816;DHT22;27814;53.452;-6.180;2022-12-18T08:34:54;7.50;99.90
41816;DHT22;27814;53.452;-6.180;2022-12-18T08:37:22;7.50;99.90
41816;DHT22;27814;53.452;-6.180;2022-12-18T08:39:50;7.50;99.90
41816;DHT22;27814;53.452;-6.180;2022-12-18T08:42:19;7.50;99.90
41816;DHT22;27814;53.452;-6.180;2022-12-18T08:45:07;7.50;99.90
41816;DHT22;27814;53.452;-6.180;2022-12-18T08:47:35;7.50;99.90
41816;DHT22;27814;53.452;-6.180;2022-12-18T08:50:04;7.50;99.90
41816;DHT22;27814;53.452;-6.180;2022-12-18T08:52:32;7.50;99.90
41816;DHT22;27814;53.452;-6.180;2022-12-18T08:55:01;7.50;99.90
41816;DHT22;27814;53.452;-6.180;2022-12-18T08:57:29;7.50;99.90
41816;DHT22;27814;53.452;-6.180;2022-12-18T08:59:57;7.50;99.90
41816;DHT22;27814;53.452;-6.180;2022-12-18T09:02:27;7.50;99.90
41816;DHT22;27814;53.452;-6.180;2022-12-18T09:04:56;7.50;99.90
41816;DHT22;27814;53.452;-6.180;2022-12-18T09:07:24;7.50;99.90
41816;DHT22;27814;53.452;-6.180;2022-12-18T09:09:53;7.50;99.90
41816;DHT22;27814;53.452;-6.180;2022-12-18T09:12:21;7.50;99.90
41816;DHT22;27814;53.452;-6.180;2022-12-18T09:14:50;7.50;99.90
41816;DHT22;27814;53.452;-6.180;2022-12-18T09:17:18;7.50;99.90
41816;DHT22;27814;53.452;-6.180;2022-12-18T09:19:48;7.50;99.90
41816;DHT22;27814;53.452;-6.180;2022-12-18T09:22:16;7.50;99.90
41816;DHT22;27814;53.452;-6.180;2022-12-18T09:24:45;7.50;99.90
41816;DHT22;27814;53.452;-6.180;2022-12-18T09:27:13;7.50;99.90
41816;DHT22;27814;53.452;-6.180;2022-12-18T09:29:42;7.50;99.90
41816;DHT22;27814;53.452;-6.180;2022-12-18T09:32:10;7.60;99.90
41816;DHT22;27814;53.452;-6.180;2022-12-18T09:34:44;7.60;99.90
41816;DHT22;27814;53.452;-6.180;2022-12-18T09:37:14;7.50;99.90
41816;DHT22;27814;53.452;-6.180;2022-12-18T09:39:42;7.60;99.90
41816;DHT22;27814;53.452;-6.180;2022-12-18T09:42:16;7.50;99.90
41816;DHT22;27814;53.452;-6.180;2022-12-18T09:44:49;7.60;99.90
41816;DHT22;27814;53.452;-6.180;2022-12-18T09:47:21;7.50;99.90
41816;DHT22;27814;53.452;-6.180;2022-12-18T09:49:55;7.60;99.90
41816;DHT22;27814;53.452;-6.180;2022-12-18T09:52:29;7.60;99.90
41816;DHT22;27814;53.452;-6.180;2022-12-18T09:55:01;7.60;99.90
41816;DHT22;27814;53.452;-6.180;2022-12-18T09:57:32;7.60;99.90
41816;DHT22;27814;53.452;-6.180;2022-12-18T10:00:15;7.60;99.90
41816;DHT22;27814;53.452;-6.180;2022-12-18T10:02:45;7.60;99.90
41816;DHT22;27814;53.452;-6.180;2022-12-18T10:05:17;7.70;99.90
41816;DHT22;27814;53.452;-6.180;2022-12-18T10:07:57;7.70;99.90
41816;DHT22;27814;53.452;-6.180;2022-12-18T10:10:36;7.70;99.90
41816;DHT22;27814;53.452;-6.180;2022-12-18T10:13:15;7.70;99.90
41816;DHT22;27814;53.452;-6.180;2022-12-18T10:16:01;7.80;99.90
41816;DHT22;27814;53.452;-6.180;2022-12-18T10:19:01;7.80;99.90
41816;DHT22;27814;53.452;-6.180;2022-12-18T10:21:37;7.80;99.90
41816;DHT22;27814;53.452;-6.180;2022-12-18T10:24:16;7.80;99.90
41816;DHT22;27814;53.452;-6.180;2022-12-18T10:26:47;7.80;99.90
41816;DHT22;27814;53.452;-6.180;2022-12-18T10:29:16;7.80;99.90
41816;DHT22;27814;53.452;-6.180;2022-12-18T10:31:45;7.80;99.90
41816;DHT22;27814;53.452;-6.180;2022-12-18T10:34:13;7.80;99.90
41816;DHT22;27814;53.452;-6.180;2022-12-18T10:36:42;7.90;99.90
41816;DHT22;27814;53.452;-6.180;2022-12-18T10:39:20;7.90;99.90
41816;DHT22;27814;53.452;-6.180;2022-12-18T10:41:49;7.90;99.90
41816;DHT22;27814;53.452;-6.180;2022-12-18T10:44:20;7.90;99.90
41816;DHT22;27814;53.452;-6.180;2022-12-18T10:46:51;7.90;99.90
41816;DHT22;27814;53.452;-6.180;2022-12-18T10:49:25;7.90;99.90
41816;DHT22;27814;53.452;-6.180;2022-12-18T10:52:05;8.00;99.90
41816;DHT22;27814;53.452;-6.180;2022-12-18T10:54:37;8.00;99.90
41816;DHT22;27814;53.452;-6.180;2022-12-18T10:57:19;8.00;99.90
41816;DHT22;27814;53.452;-6.180;2022-12-18T10:59:57;8.10;99.90
41816;DHT22;27814;53.452;-6.180;2022-12-18T11:02:28;8.10;99.90
41816;DHT22;27814;53.452;-6.180;2022-12-18T11:05:02;8.10;99.90
41816;DHT22;27814;53.452;-6.180;2022-12-18T11:07:47;8.20;99.90
41816;DHT22;27814;53.452;-6.180;2022-12-18T11:10:19;8.20;99.90
41816;DHT22;27814;53.452;-6.180;2022-12-18T11:12:48;8.30;99.90
41816;DHT22;27814;53.452;-6.180;2022-12-18T11:15:19;8.30;99.90
41816;DHT22;27814;53.452;-6.180;2022-12-18T11:17:50;8.30;99.90
41816;DHT22;27814;53.452;-6.180;2022-12-18T11:20:29;8.30;99.90
41816;DHT22;27814;53.452;-6.180;2022-12-18T11:22:59;8.30;99.90
41816;DHT22;27814;53.452;-6.180;2022-12-18T11:25:31;8.30;99.90
41816;DHT22;27814;53.452;-6.180;2022-12-18T11:28:04;8.30;99.90
41816;DHT22;27814;53.452;-6.180;2022-12-18T11:30:34;8.30;99.90
41816;DHT22;27814;53.452;-6.180;2022-12-18T11:33:06;8.30;99.90
41816;DHT22;27814;53.452;-6.180;2022-12-18T11:35:39;8.40;99.90
41816;DHT22;27814;53.452;-6.180;2022-12-18T11:38:18;8.40;99.90
41816;DHT22;27814;53.452;-6.180;2022-12-18T11:40:52;8.40;99.90
41816;DHT22;27814;53.452;-6.180;2022-12-18T11:43:27;8.40;99.90
41816;DHT22;27814;53.452;-6.180;2022-12-18T11:46:00;8.40;99.90
41816;DHT22;27814;53.452;-6.180;2022-12-18T11:48:32;8.40;99.90
41816;DHT22;27814;53.452;-6.180;2022-12-18T11:51:05;8.50;99.90
41816;DHT22;27814;53.452;-6.180;2022-12-18T11:53:37;8.50;99.90
41816;DHT22;27814;53.452;-6.180;2022-12-18T11:56:26;8.50;99.90
41816;DHT22;27814;53.452;-6.180;2022-12-18T11:59:02;8.50;99.90
41816;DHT22;27814;53.452;-6.180;2022-12-18T12:01:41;8.60;99.90
41816;DHT22;27814;53.452;-6.180;2022-12-18T12:07:21;8.60;99.90
41816;DHT22;27814;53.452;-6.180;2022-12-18T12:10:01;8.70;99.90
41816;DHT22;27814;53.452;-6.180;2022-12-18T12:12:43;8.70;99.90
41816;DHT22;27814;53.452;-6.180;2022-12-18T12:15:23;8.70;99.90
41816;DHT22;27814;53.452;-6.180;2022-12-18T12:17:58;8.70;99.90
41816;DHT22;27814;53.452;-6.180;2022-12-18T12:20:45;8.80;99.90
41816;DHT22;27814;53.452;-6.180;2022-12-18T12:23:22;8.80;99.90
41816;DHT22;27814;53.452;-6.180;2022-12-18T12:26:00;8.80;99.90
41816;DHT22;27814;53.452;-6.180;2022-12-18T12:28:51;8.80;99.90
41816;DHT22;27814;53.452;-6.180;2022-12-18T12:31:33;8.90;99.90
41816;DHT22;27814;53.452;-6.180;2022-12-18T12:34:14;8.90;99.90
41816;DHT22;27814;53.452;-6.180;2022-12-18T12:36:54;9.00;99.90
41816;DHT22;27814;53.452;-6.180;2022-12-18T12:39:31;9.00;99.90
41816;DHT22;27814;53.452;-6.180;2022-12-18T12:42:02;9.00;99.90
41816;DHT22;27814;53.452;-6.180;2022-12-18T12:44:53;9.10;99.90
41816;DHT22;27814;53.452;-6.180;2022-12-18T12:47:25;9.10;99.90
41816;DHT22;27814;53.452;-6.180;2022-12-18T12:49:56;9.20;99.90
41816;DHT22;27814;53.452;-6.180;2022-12-18T12:52:29;9.20;99.90
41816;DHT22;27814;53.452;-6.180;2022-12-18T12:54:59;9.30;99.90
41816;DHT22;27814;53.452;-6.180;2022-12-18T12:57:33;9.30;99.90
41816;DHT22;27814;53.452;-6.180;2022-12-18T13:00:07;9.30;99.90
41816;DHT22;27814;53.452;-6.180;2022-12-18T13:02:44;9.40;99.90
41816;DHT22;27814;53.452;-6.180;2022-12-18T13:05:20;9.40;99.90
41816;DHT22;27814;53.452;-6.180;2022-12-18T13:07:55;9.40;99.90
41816;DHT22;27814;53.452;-6.180;2022-12-18T13:10:32;9.50;99.90
41816;DHT22;27814;53.452;-6.180;2022-12-18T13:13:03;9.50;99.90
41816;DHT22;27814;53.452;-6.180;2022-12-18T13:15:38;9.60;99.90
41816;DHT22;27814;53.452;-6.180;2022-12-18T13:18:28;9.60;99.90
41816;DHT22;27814;53.452;-6.180;2022-12-18T13:21:08;9.60;99.90
41816;DHT22;27814;53.452;-6.180;2022-12-18T13:23:41;9.70;99.90
41816;DHT22;27814;53.452;-6.180;2022-12-18T13:26:31;9.70;99.90
41816;DHT22;27814;53.452;-6.180;2022-12-18T13:29:03;9.70;99.90
41816;DHT22;27814;53.452;-6.180;2022-12-18T13:34:30;9.80;99.90
41816;DHT22;27814;53.452;-6.180;2022-12-18T13:40:01;9.80;99.90
41816;DHT22;27814;53.452;-6.180;2022-12-18T13:42:40;9.80;99.90
41816;DHT22;27814;53.452;-6.180;2022-12-18T13:45:44;9.80;99.90
41816;DHT22;27814;53.452;-6.180;2022-12-18T13:48:22;9.90;99.90
41816;DHT22;27814;53.452;-6.180;2022-12-18T13:50:57;9.90;99.90
41816;DHT22;27814;53.452;-6.180;2022-12-18T13:53:29;9.90;99.90
41816;DHT22;27814;53.452;-6.180;2022-12-18T13:55:58;9.90;99.90
41816;DHT22;27814;53.452;-6.180;2022-12-18T13:58:27;10.00;99.90
41816;DHT22;27814;53.452;-6.180;2022-12-18T14:00:55;10.00;99.90
41816;DHT22;27814;53.452;-6.180;2022-12-18T14:03:28;10.00;99.90
41816;DHT22;27814;53.452;-6.180;2022-12-18T14:06:04;10.00;99.90
41816;DHT22;27814;53.452;-6.180;2022-12-18T14:08:38;10.00;99.90
41816;DHT22;27814;53.452;-6.180;2022-12-18T14:11:19;10.00;99.90
41816;DHT22;27814;53.452;-6.180;2022-12-18T14:13:49;10.00;99.90
41816;DHT22;27814;53.452;-6.180;2022-12-18T14:16:18;10.00;99.90
41816;DHT22;27814;53.452;-6.180;2022-12-18T14:18:52;10.00;99.90
41816;DHT22;27814;53.452;-6.180;2022-12-18T14:21:29;10.00;99.90
41816;DHT22;27814;53.452;-6.180;2022-12-18T14:24:12;10.10;99.90
41816;DHT22;27814;53.452;-6.180;2022-12-18T14:26:46;10.10;99.90
41816;DHT22;27814;53.452;-6.180;2022-12-18T14:29:22;10.10;99.90
41816;DHT22;27814;53.452;-6.180;2022-12-18T14:32:09;10.10;99.90
41816;DHT22;27814;53.452;-6.180;2022-12-18T14:34:44;10.10;99.90
41816;DHT22;27814;53.452;-6.180;2022-12-18T14:37:16;10.20;99.90
41816;DHT22;27814;53.452;-6.180;2022-12-18T14:39:55;10.20;99.90
41816;DHT22;27814;53.452;-6.180;2022-12-18T14:42:25;10.20;99.90
41816;DHT22;27814;53.452;-6.180;2022-12-18T14:48:11;10.20;99.90
41816;DHT22;27814;53.452;-6.180;2022-12-18T14:50:56;10.30;99.90
41816;DHT22;27814;53.452;-6.180;2022-12-18T14:53:33;10.30;99.90
41816;DHT22;27814;53.452;-6.180;2022-12-18T14:56:03;10.30;99.90
41816;DHT22;27814;53.452;-6.180;2022-12-18T14:58:37;10.30;99.90
41816;DHT22;27814;53.452;-6.180;2022-12-18T15:01:05;10.30;99.90
41816;DHT22;27814;53.452;-6.180;2022-12-18T15:03:34;10.30;99.90
41816;DHT22;27814;53.452;-6.180;2022-12-18T15:06:16;10.40;99.90
41816;DHT22;27814;53.452;-6.180;2022-12-18T15:08:46;10.40;99.90
41816;DHT22;27814;53.452;-6.180;2022-12-18T15:11:34;10.40;99.90
41816;DHT22;27814;53.452;-6.180;2022-12-18T15:14:22;10.40;99.90
41816;DHT22;27814;53.452;-6.180;2022-12-18T15:16:52;10.40;99.90
41816;DHT22;27814;53.452;-6.180;2022-12-18T15:19:22;10.40;99.90
41816;DHT22;27814;53.452;-6.180;2022-12-18T15:21:52;10.50;99.90
41816;DHT22;27814;53.452;-6.180;2022-12-18T15:24:26;10.50;99.90
41816;DHT22;27814;53.452;-6.180;2022-12-18T15:26:55;10.50;99.90
41816;DHT22;27814;53.452;-6.180;2022-12-18T15:29:23;10.50;99.90
41816;DHT22;27814;53.452;-6.180;2022-12-18T15:32:00;10.50;99.90
41816;DHT22;27814;53.452;-6.180;2022-12-18T15:34:29;10.50;99.90
41816;DHT22;27814;53.452;-6.180;2022-12-18T15:36:58;10.50;99.90
41816;DHT22;27814;53.452;-6.180;2022-12-18T15:39:28;10.50;99.90
41816;DHT22;27814;53.452;-6.180;2022-12-18T15:41:56;10.60;99.90
41816;DHT22;27814;53.452;-6.180;2022-12-18T15:44:43;10.60;99.90
41816;DHT22;27814;53.452;-6.180;2022-12-18T15:47:12;10.60;99.90
41816;DHT22;27814;53.452;-6.180;2022-12-18T15:49:41;10.60;99.90
41816;DHT22;27814;53.452;-6.180;2022-12-18T15:52:11;10.60;99.90
41816;DHT22;27814;53.452;-6.180;2022-12-18T15:54:42;10.70;99.90
41816;DHT22;27814;53.452;-6.180;2022-12-18T15:57:28;10.70;99.90
41816;DHT22;27814;53.452;-6.180;2022-12-18T15:59:56;10.70;99.90
41816;DHT22;27814;53.452;-6.180;2022-12-18T16:02:26;10.70;99.90
41816;DHT22;27814;53.452;-6.180;2022-12-18T16:04:57;10.70;99.90
41816;DHT22;27814;53.452;-6.180;2022-12-18T16:07:25;10.80;99.90
41816;DHT22;27814;53.452;-6.180;2022-12-18T16:09:58;10.80;99.90
41816;DHT22;27814;53.452;-6.180;2022-12-18T16:12:28;10.80;99.90